Time;durP1;ratioP1;P1;durP2;ratioP2;P2;SDS_P1;SDS_P2;PMS_P1;PMS_P2;Temp;Humidity;BMP_temperature;BMP_pressure;BME280_temperature;BME280_humidity;BME280_pressure;Samples;Min_cycle;Max_cycle;Signal;HPM_P1;HPM_P2
2021/12/30 00:01:26;;;;;;;3.65;1.10;;;;;;;15.66;90.65;101128.69;4918468;29;20062;-67
2021/12/30 00:03:53;;;;;;;1.50;0.70;;;;;;;15.53;90.41;101136.13;4935576;29;20062;-67
2021/12/30 00:06:23;;;;;;;5.15;1.00;;;;;;;15.57;89.89;101142.63;4938040;29;20050;-68
2021/12/30 00:08:52;;;;;;;2.45;1.00;;;;;;;15.57;90.21;101136.25;4937211;29;20047;-67
2021/12/30 00:11:21;;;;;;;3.17;1.00;;;;;;;15.73;88.92;101138.13;4938836;29;20048;-67
2021/12/30 00:13:49;;;;;;;1.92;0.80;;;;;;;15.63;89.22;101146.03;4937062;29;20066;-68
2021/12/30 00:16:17;;;;;;;5.35;1.05;;;;;;;15.84;88.72;101154.38;4939718;29;20546;-67
2021/12/30 00:18:46;;;;;;;4.70;0.90;;;;;;;16.23;87.35;101148.34;4936923;29;20066;-67
2021/12/30 00:21:13;;;;;;;1.60;0.52;;;;;;;15.99;87.42;101149.03;4938067;29;20554;-68
2021/12/30 00:23:42;;;;;;;1.85;0.70;;;;;;;15.90;87.63;101145.50;4936689;29;20248;-68
2021/12/30 00:26:09;;;;;;;2.45;1.02;;;;;;;15.71;88.04;101137.63;4935501;29;20055;-68
2021/12/30 00:28:37;;;;;;;3.28;0.90;;;;;;;15.56;89.14;101138.25;4940964;28;20066;-67
2021/12/30 00:31:04;;;;;;;2.20;1.00;;;;;;;15.66;89.63;101151.72;4945971;29;20051;-67
2021/12/30 00:33:34;;;;;;;2.28;0.77;;;;;;;15.56;89.00;101146.56;4938232;29;20052;-68
2021/12/30 00:36:06;;;;;;;3.65;1.38;;;;;;;15.57;89.34;101139.84;4938262;29;20043;-70
2021/12/30 00:38:35;;;;;;;1.95;0.68;;;;;;;15.66;89.36;101151.72;4937985;29;20060;-69
2021/12/30 00:41:03;;;;;;;2.05;0.93;;;;;;;15.82;88.62;101145.56;4938170;29;20055;-66
2021/12/30 00:43:31;;;;;;;4.05;1.00;;;;;;;15.77;88.38;101158.53;4936785;29;20051;-70
2021/12/30 00:45:58;;;;;;;2.53;0.90;;;;;;;15.70;88.85;101149.91;4936596;29;20047;-69
2021/12/30 00:48:26;;;;;;;2.28;0.80;;;;;;;15.89;88.82;101146.66;4936710;29;20055;-69
2021/12/30 00:50:53;;;;;;;1.63;0.70;;;;;;;15.81;88.46;101149.50;4935679;29;20055;-69
2021/12/30 00:53:21;;;;;;;2.00;0.90;;;;;;;16.01;87.85;101163.41;4937708;29;20074;-69
2021/12/30 00:55:48;;;;;;;4.03;0.85;;;;;;;15.96;87.29;101160.81;4938033;29;20055;-70
2021/12/30 00:58:15;;;;;;;1.70;0.70;;;;;;;15.97;87.62;101170.78;4937451;29;20765;-70
2021/12/30 01:00:44;;;;;;;2.05;0.70;;;;;;;15.99;87.30;101171.25;4937726;29;20530;-69
2021/12/30 01:03:13;;;;;;;3.20;0.63;;;;;;;15.98;87.95;101175.19;4936595;29;20052;-69
2021/12/30 01:05:40;;;;;;;2.60;0.80;;;;;;;15.76;88.43;101173.53;4938227;29;20056;-69
2021/12/30 01:08:08;;;;;;;2.88;0.80;;;;;;;15.62;88.97;101183.31;4936129;29;20059;-68
2021/12/30 01:10:36;;;;;;;1.10;0.70;;;;;;;15.27;91.85;101190.13;4936793;29;20059;-68
2021/12/30 01:13:06;;;;;;;4.07;1.20;;;;;;;15.39;92.53;101184.69;4938144;29;20066;-71
2021/12/30 01:15:57;;;;;;;4.63;1.55;;;;;;;15.43;91.53;101191.25;4938035;29;20063;-70
2021/12/30 01:18:36;;;;;;;2.13;1.10;;;;;;;15.52;91.57;101189.22;4937692;29;20487;-67
2021/12/30 01:21:06;;;;;;;1.90;0.90;;;;;;;15.44;91.17;101198.41;4937786;29;20640;-67
2021/12/30 01:23:33;;;;;;;2.13;1.00;;;;;;;15.10;93.51;101204.88;4937666;29;20056;-68
2021/12/30 01:26:00;;;;;;;3.08;1.00;;;;;;;14.93;94.78;101213.25;4937696;29;20051;-68
2021/12/30 01:28:28;;;;;;;2.58;1.00;;;;;;;14.87;95.82;101219.31;4937536;29;20496;-67
2021/12/30 01:30:56;;;;;;;2.88;1.10;;;;;;;15.07;96.40;101210.28;4937682;29;20051;-69
2021/12/30 01:33:26;;;;;;;2.00;1.20;;;;;;;15.13;94.63;101211.75;4935664;29;20082;-70
2021/12/30 01:35:54;;;;;;;6.88;1.00;;;;;;;15.33;95.11;101211.81;4937598;29;20059;-69
2021/12/30 01:38:21;;;;;;;3.38;1.08;;;;;;;15.35;94.24;101215.06;4938924;29;20058;-69
2021/12/30 01:40:50;;;;;;;3.60;1.05;;;;;;;15.21;94.63;101221.97;4941952;29;20059;-69
2021/12/30 01:43:18;;;;;;;2.23;1.00;;;;;;;15.39;94.05;101224.38;4941310;29;20048;-70
2021/12/30 01:45:46;;;;;;;2.45;0.80;;;;;;;15.45;93.69;101225.00;4924831;29;20295;-68
2021/12/30 01:48:13;;;;;;;3.75;1.10;;;;;;;15.31;94.05;101224.38;4940044;29;20056;-70
2021/12/30 01:50:41;;;;;;;3.38;0.90;;;;;;;15.52;93.46;101234.47;4941512;29;20066;-69
2021/12/30 01:53:08;;;;;;;2.30;0.80;;;;;;;15.44;93.75;101229.78;4939726;29;20058;-70
2021/12/30 01:55:36;;;;;;;3.92;1.10;;;;;;;15.52;93.64;101228.09;4941749;29;20509;-69
2021/12/30 01:58:05;;;;;;;4.63;1.40;;;;;;;15.35;93.21;101230.91;4939779;29;20068;-69
2021/12/30 02:00:33;;;;;;;5.32;1.00;;;;;;;15.49;94.34;101234.31;4940059;29;20376;-69
2021/12/30 02:03:00;;;;;;;2.38;0.93;;;;;;;15.56;93.35;101229.06;4939752;29;20044;-67
2021/12/30 02:05:29;;;;;;;5.28;1.13;;;;;;;15.68;92.27;101235.53;4941089;29;20062;-70
2021/12/30 02:07:56;;;;;;;4.85;1.02;;;;;;;15.74;91.68;101236.94;4940568;29;20055;-70
2021/12/30 02:10:25;;;;;;;5.68;1.13;;;;;;;15.53;92.55;101236.06;4941367;29;20052;-70
2021/12/30 02:12:52;;;;;;;1.45;0.77;;;;;;;15.51;93.35;101246.72;4941426;29;20066;-69
2021/12/30 02:15:19;;;;;;;4.15;1.02;;;;;;;15.54;93.02;101243.28;4941423;29;20063;-66
2021/12/30 02:17:49;;;;;;;4.03;1.30;;;;;;;15.64;92.11;101248.44;4940022;29;20052;-69
2021/12/30 02:20:49;;;;;;;2.78;0.73;;;;;;;15.63;92.36;101244.06;4939917;29;20054;-69
2021/12/30 02:23:22;;;;;;;3.25;1.00;;;;;;;15.74;91.32;101247.25;4936045;29;20431;-69
2021/12/30 02:25:52;;;;;;;2.25;0.70;;;;;;;15.88;90.42;101247.84;4939905;29;20066;-71
2021/12/30 02:28:23;;;;;;;4.75;0.88;;;;;;;15.63;90.87;101251.56;4939338;29;20064;-69
2021/12/30 02:30:52;;;;;;;3.92;0.93;;;;;;;15.57;91.74;101262.03;4940654;29;20055;-69
2021/12/30 02:33:19;;;;;;;2.55;0.77;;;;;;;15.58;92.02;101255.34;4940459;29;20060;-70
2021/12/30 02:35:47;;;;;;;4.15;0.80;;;;;;;15.75;91.45;101257.22;4940899;29;20055;-70
2021/12/30 02:38:16;;;;;;;3.95;0.73;;;;;;;15.38;91.77;101256.03;4940040;29;20058;-70
2021/12/30 02:40:49;;;;;;;3.58;1.05;;;;;;;15.39;93.26;101259.66;4940490;28;20063;-68
2021/12/30 02:43:21;;;;;;;4.13;1.20;;;;;;;15.61;92.47;101264.97;4940455;29;20055;-72
2021/12/30 02:45:48;;;;;;;3.50;0.93;;;;;;;15.62;91.61;101272.16;4939371;29;20047;-70
2021/12/30 02:48:18;;;;;;;5.47;1.00;;;;;;;15.56;91.58;101277.09;4939688;29;20059;-70
2021/12/30 02:50:47;;;;;;;5.13;1.00;;;;;;;15.37;91.93;101275.81;4940243;29;20051;-71
2021/12/30 02:53:14;;;;;;;2.42;0.68;;;;;;;15.34;92.83;101279.25;4939847;29;20044;-70
2021/12/30 02:55:43;;;;;;;5.88;0.85;;;;;;;15.59;92.46;101275.59;4940707;29;20055;-67
2021/12/30 02:58:12;;;;;;;2.38;0.80;;;;;;;15.59;91.88;101279.19;4939854;29;20063;-67
2021/12/30 03:00:43;;;;;;;4.45;1.10;;;;;;;15.77;90.68;101277.97;4939810;29;20542;-67
2021/12/30 03:03:21;;;;;;;1.92;0.70;;;;;;;15.67;90.96;101280.31;4938783;29;20491;-68
2021/12/30 03:05:49;;;;;;;4.20;1.00;;;;;;;15.57;91.21;101275.09;4940158;29;20071;-68
2021/12/30 03:08:17;;;;;;;2.95;0.88;;;;;;;15.44;91.54;101274.19;4939222;29;20129;-67
2021/12/30 03:10:44;;;;;;;4.78;0.90;;;;;;;15.44;91.52;101281.69;4939768;29;20055;-68
2021/12/30 03:13:14;;;;;;;2.55;0.68;;;;;;;15.42;91.24;101273.72;4939854;29;20048;-68
2021/12/30 03:15:42;;;;;;;3.00;0.80;;;;;;;15.43;91.89;101286.44;4940159;29;20056;-68
2021/12/30 03:18:09;;;;;;;4.38;0.90;;;;;;;15.46;90.99;101276.63;4939200;29;20051;-68
2021/12/30 03:20:38;;;;;;;3.70;0.80;;;;;;;15.24;92.60;101280.41;4939652;29;20043;-68
2021/12/30 03:23:05;;;;;;;6.57;0.95;;;;;;;15.20;91.97;101276.66;4937957;29;20047;-68
2021/12/30 03:25:32;;;;;;;7.63;1.10;;;;;;;15.28;92.22;101281.41;4939712;29;20064;-68
2021/12/30 03:28:00;;;;;;;4.47;0.80;;;;;;;15.21;93.16;101285.81;4939497;29;20048;-67
2021/12/30 03:30:27;;;;;;;3.03;0.98;;;;;;;15.28;92.10;101286.94;4939221;29;20052;-68
2021/12/30 03:32:54;;;;;;;2.75;0.70;;;;;;;15.09;92.53;101285.69;4939646;29;20427;-67
2021/12/30 03:35:22;;;;;;;4.78;1.10;;;;;;;15.08;93.20;101293.19;4938727;29;20474;-67
2021/12/30 03:37:49;;;;;;;3.05;0.65;;;;;;;15.17;93.01;101287.59;4939454;29;20060;-68
2021/12/30 03:40:17;;;;;;;3.17;0.70;;;;;;;15.16;92.38;101284.03;4938047;29;20063;-68
2021/12/30 03:42:44;;;;;;;4.22;0.80;;;;;;;15.14;92.95;101285.50;4939766;29;20449;-68
2021/12/30 03:45:14;;;;;;;2.78;0.57;;;;;;;15.06;92.71;101289.13;4940110;29;20060;-68
2021/12/30 03:47:45;;;;;;;3.20;1.02;;;;;;;15.00;92.94;101285.69;4939578;29;20051;-68
2021/12/30 03:50:19;;;;;;;4.93;0.80;;;;;;;15.09;93.51;101288.44;4939088;29;20058;-68
2021/12/30 03:52:49;;;;;;;4.53;0.90;;;;;;;15.20;92.50;101286.97;4939052;29;20052;-67
2021/12/30 03:55:18;;;;;;;6.30;0.80;;;;;;;15.24;91.84;101285.97;4938820;29;20066;-68
2021/12/30 03:57:46;;;;;;;3.50;0.80;;;;;;;15.22;92.21;101279.94;4938901;29;20071;-68
2021/12/30 04:00:14;;;;;;;2.90;0.80;;;;;;;15.20;91.72;101282.22;4936937;29;20523;-67
2021/12/30 04:02:41;;;;;;;2.50;0.70;;;;;;;15.36;91.87;101290.84;4938608;29;20492;-68
2021/12/30 04:05:10;;;;;;;7.38;1.80;;;;;;;15.52;90.04;101278.88;4938930;29;20062;-66
2021/12/30 04:07:38;;;;;;;4.28;1.17;;;;;;;15.66;89.46;101282.25;4938800;29;20044;-67
2021/12/30 04:10:07;;;;;;;7.28;2.25;;;;;;;15.68;88.97;101270.81;4938380;29;20055;-67
2021/12/30 04:12:35;;;;;;;2.83;0.90;;;;;;;15.55;89.09;101282.97;4937110;29;20047;-67
2021/12/30 04:15:03;;;;;;;2.00;0.73;;;;;;;15.49;89.14;101282.34;4938714;29;20484;-68
2021/12/30 04:17:31;;;;;;;5.30;1.15;;;;;;;15.59;89.12;101281.97;4939204;29;20178;-67
2021/12/30 04:19:58;;;;;;;5.55;0.90;;;;;;;15.60;88.49;101282.78;4936738;29;20051;-67
2021/12/30 04:22:25;;;;;;;4.50;0.93;;;;;;;15.57;88.42;101286.19;4938426;29;20075;-67
2021/12/30 04:24:53;;;;;;;5.68;0.80;;;;;;;16.17;86.29;101283.13;4938312;29;20050;-67
2021/12/30 04:27:20;;;;;;;2.38;0.75;;;;;;;15.87;86.38;101284.28;4938515;29;20176;-67
2021/12/30 04:29:47;;;;;;;4.38;0.82;;;;;;;15.86;87.50;101265.97;4936585;29;20060;-67
2021/12/30 04:32:14;;;;;;;5.47;0.90;;;;;;;15.77;87.01;101266.03;4938328;29;20054;-67
2021/12/30 04:34:41;;;;;;;5.32;0.93;;;;;;;15.79;87.49;101272.06;4938334;29;20050;-68
2021/12/30 04:37:09;;;;;;;3.00;0.75;;;;;;;16.06;86.18;101276.31;4938182;29;20056;-67
2021/12/30 04:39:36;;;;;;;3.17;1.10;;;;;;;16.06;85.61;101277.13;4937612;29;20066;-67
2021/12/30 04:42:03;;;;;;;4.03;0.90;;;;;;;15.99;85.03;101273.28;4938128;29;20051;-68
2021/12/30 04:44:31;;;;;;;7.63;1.13;;;;;;;15.86;85.75;101275.13;4937036;29;20048;-68
2021/12/30 04:46:58;;;;;;;3.85;1.00;;;;;;;16.21;84.80;101276.56;4936375;29;20060;-68
2021/12/30 04:49:26;;;;;;;2.38;0.70;;;;;;;16.01;84.59;101284.84;4935000;29;20047;-67
2021/12/30 04:51:53;;;;;;;6.00;1.40;;;;;;;15.99;85.00;101287.97;4937786;29;20048;-68
2021/12/30 04:54:20;;;;;;;8.10;2.13;;;;;;;16.37;84.29;101291.47;4937473;29;20043;-68
2021/12/30 04:56:47;;;;;;;7.30;1.35;;;;;;;16.21;83.41;101306.31;4938404;29;20055;-68
2021/12/30 04:59:15;;;;;;;5.50;2.00;;;;;;;16.08;84.00;101310.13;4938231;29;20424;-67
2021/12/30 05:01:42;;;;;;;5.38;1.20;;;;;;;16.19;83.56;101303.06;4936536;29;20056;-67
2021/12/30 05:04:10;;;;;;;6.47;1.67;;;;;;;16.01;84.16;101305.13;4936755;29;20610;-68
2021/12/30 05:06:37;;;;;;;5.35;1.00;;;;;;;15.94;84.24;101306.78;4937990;29;20056;-68
2021/12/30 05:09:08;;;;;;;6.60;1.08;;;;;;;15.76;85.07;101309.66;4937314;29;20056;-67
2021/12/30 05:11:39;;;;;;;4.63;1.15;;;;;;;15.90;84.90;101320.53;4937112;29;20060;-68
2021/12/30 05:14:07;;;;;;;4.95;1.40;;;;;;;15.99;84.16;101328.84;4937607;29;20498;-68
2021/12/30 05:16:35;;;;;;;6.70;1.02;;;;;;;15.90;84.57;101328.06;4937803;29;20055;-67
2021/12/30 05:19:03;;;;;;;4.70;1.20;;;;;;;15.73;85.11;101334.50;4938119;29;20056;-67
2021/12/30 05:21:31;;;;;;;6.22;1.08;;;;;;;16.00;84.25;101336.03;4937484;29;20052;-67
2021/12/30 05:23:59;;;;;;;6.88;1.15;;;;;;;15.76;84.75;101334.66;4920241;29;20062;-67
2021/12/30 05:26:28;;;;;;;6.80;1.35;;;;;;;15.92;84.76;101326.56;4936211;29;20063;-67
2021/12/30 05:28:56;;;;;;;8.40;1.25;;;;;;;15.83;84.93;101323.00;4938101;28;20052;-67
2021/12/30 05:31:24;;;;;;;5.20;1.38;;;;;;;15.81;84.70;101328.13;4937248;29;20408;-67
2021/12/30 05:33:52;;;;;;;7.65;1.30;;;;;;;15.81;84.75;101322.56;4937660;29;20052;-67
2021/12/30 05:36:19;;;;;;;8.77;2.05;;;;;;;15.54;85.80;101343.25;4937604;29;20062;-68
2021/12/30 05:38:47;;;;;;;9.88;1.40;;;;;;;16.20;83.33;101360.25;4936982;29;20059;-67
2021/12/30 05:41:15;;;;;;;7.85;1.65;;;;;;;15.81;84.53;101355.91;4937385;29;20078;-68
2021/12/30 05:43:42;;;;;;;9.23;1.50;;;;;;;15.89;83.85;101376.44;4937634;29;20055;-69
2021/12/30 05:46:09;;;;;;;9.73;2.38;;;;;;;15.71;84.67;101372.91;4937707;29;20074;-68
2021/12/30 05:48:37;;;;;;;10.23;2.50;;;;;;;15.58;85.01;101377.53;4936145;29;20063;-68
2021/12/30 05:51:04;;;;;;;9.43;1.95;;;;;;;15.56;85.24;101373.44;4937111;29;20064;-68
2021/12/30 05:53:31;;;;;;;9.93;2.35;;;;;;;15.59;85.42;101373.59;4937329;29;20056;-67
2021/12/30 05:55:59;;;;;;;8.55;1.90;;;;;;;15.46;85.47;101368.25;4937296;29;20048;-67
2021/12/30 05:58:26;;;;;;;9.48;1.77;;;;;;;15.25;86.66;101379.19;4936191;29;20075;-67
2021/12/30 06:00:53;;;;;;;8.25;1.90;;;;;;;15.20;86.92;101378.56;4935819;29;20488;-67
2021/12/30 06:03:21;;;;;;;9.73;1.90;;;;;;;15.23;87.19;101381.50;4923453;29;20095;-67
2021/12/30 06:05:49;;;;;;;8.02;1.92;;;;;;;15.23;87.49;101384.25;4918420;29;20056;-67
2021/12/30 06:08:17;;;;;;;9.70;2.13;;;;;;;15.17;87.37;101388.34;4932005;29;20163;-68
2021/12/30 06:10:45;;;;;;;13.32;3.85;;;;;;;15.45;86.70;101381.31;4935347;29;20074;-68
2021/12/30 06:13:13;;;;;;;14.50;2.83;;;;;;;15.35;86.55;101387.19;4937383;29;20055;-68
2021/12/30 06:15:41;;;;;;;13.75;3.78;;;;;;;15.59;85.43;101387.50;4937287;29;20389;-68
2021/12/30 06:18:08;;;;;;;13.68;3.65;;;;;;;15.47;85.12;101390.13;4936261;29;20056;-68
2021/12/30 06:20:35;;;;;;;15.20;2.47;;;;;;;15.17;86.15;101387.50;4936891;29;20525;-68
2021/12/30 06:23:02;;;;;;;15.63;3.10;;;;;;;15.17;86.47;101391.13;4937267;29;20054;-68
2021/12/30 06:25:30;;;;;;;11.32;2.38;;;;;;;15.07;86.99;101394.22;4940487;29;20143;-67
2021/12/30 06:27:57;;;;;;;15.02;2.42;;;;;;;15.06;86.79;101387.06;4940717;29;20066;-69
2021/12/30 06:30:24;;;;;;;11.90;3.00;;;;;;;15.09;86.95;101391.94;4938502;29;20051;-68
2021/12/30 06:32:51;;;;;;;17.00;3.13;;;;;;;15.17;87.02;101393.06;4940075;29;20054;-68
2021/12/30 06:35:19;;;;;;;14.73;2.55;;;;;;;15.13;86.66;101395.69;4939001;29;20056;-68
2021/12/30 06:37:46;;;;;;;16.60;3.28;;;;;;;15.00;87.08;101402.22;4940408;29;20055;-68
2021/12/30 06:40:14;;;;;;;18.70;2.85;;;;;;;15.09;86.93;101400.25;4940034;29;20054;-68
2021/12/30 06:42:43;;;;;;;20.75;3.13;;;;;;;14.97;86.96;101402.06;4940249;29;20058;-68
2021/12/30 06:45:12;;;;;;;17.83;3.38;;;;;;;14.94;87.15;101397.97;4940854;29;20047;-68
2021/12/30 06:47:45;;;;;;;22.05;3.30;;;;;;;14.79;87.41;101406.78;4940451;29;20058;-67
2021/12/30 06:50:14;;;;;;;18.27;3.58;;;;;;;14.86;87.30;101411.84;4940251;29;20414;-68
2021/12/30 06:52:43;;;;;;;19.58;3.25;;;;;;;15.23;86.04;101398.13;4939924;29;20595;-68
2021/12/30 06:55:10;;;;;;;18.93;3.00;;;;;;;15.14;85.30;101396.50;4940236;29;20066;-68
2021/12/30 06:57:39;;;;;;;21.88;3.28;;;;;;;14.94;86.38;101405.50;4939762;29;20067;-69
2021/12/30 07:00:09;;;;;;;18.15;3.55;;;;;;;15.16;84.97;101403.38;4938745;29;20059;-68
2021/12/30 07:02:36;;;;;;;18.87;3.73;;;;;;;14.76;86.25;101407.44;4922614;29;20052;-68
2021/12/30 07:05:04;;;;;;;25.27;3.55;;;;;;;14.65;87.53;101415.25;4938049;29;21013;-68
2021/12/30 07:07:31;;;;;;;19.75;3.00;;;;;;;14.74;87.41;101406.94;4939505;29;20074;-68
2021/12/30 07:09:58;;;;;;;22.38;3.30;;;;;;;14.79;86.46;101411.50;4938888;29;20059;-68
2021/12/30 07:12:26;;;;;;;23.38;4.00;;;;;;;14.77;86.71;101419.34;4939956;29;20062;-68
2021/12/30 07:14:53;;;;;;;22.70;3.50;;;;;;;14.67;86.92;101420.47;4933533;29;20051;-68
2021/12/30 07:17:20;;;;;;;18.98;3.63;;;;;;;14.60;86.72;101431.22;4938951;29;20063;-68
2021/12/30 07:19:47;;;;;;;18.95;3.38;;;;;;;14.67;87.17;101431.56;4938332;29;20523;-69
2021/12/30 07:22:15;;;;;;;23.73;3.70;;;;;;;14.65;86.43;101429.13;4939436;29;20158;-68
2021/12/30 07:25:03;;;;;;;21.67;4.63;;;;;;;14.46;87.69;101441.63;4938909;29;20047;-69
2021/12/30 07:27:30;;;;;;;21.67;3.35;;;;;;;14.63;86.44;101441.66;4939416;29;20384;-69
2021/12/30 07:29:59;;;;;;;24.95;4.40;;;;;;;14.59;86.30;101444.25;4939366;29;20052;-69
2021/12/30 07:32:26;;;;;;;21.35;4.00;;;;;;;14.62;86.97;101438.09;4938937;29;20051;-70
2021/12/30 07:34:53;;;;;;;21.85;3.58;;;;;;;14.52;86.72;101441.13;4938581;29;20043;-69
2021/12/30 07:37:21;;;;;;;21.27;3.88;;;;;;;14.77;86.26;101449.84;4938808;29;20059;-69
2021/12/30 07:39:49;;;;;;;27.63;4.20;;;;;;;14.73;86.27;101446.09;4939248;29;20054;-69
2021/12/30 07:42:16;;;;;;;26.30;4.68;;;;;;;14.51;86.26;101447.00;4938284;29;20140;-68
2021/12/30 07:44:43;;;;;;;19.88;4.05;;;;;;;14.84;85.95;101447.41;4937349;29;20111;-66
2021/12/30 07:47:18;;;;;;;20.25;4.40;;;;;;;14.94;85.00;101445.13;4937565;29;20066;-72
2021/12/30 07:49:46;;;;;;;19.52;3.90;;;;;;;15.09;84.38;101441.06;4938724;29;20051;-66
2021/12/30 07:52:13;;;;;;;17.38;3.53;;;;;;;15.28;84.01;101442.38;4938886;29;20482;-70
2021/12/30 07:54:43;;;;;;;20.10;3.72;;;;;;;14.95;84.12;101445.94;4939591;29;20066;-70
2021/12/30 07:57:12;;;;;;;23.10;4.38;;;;;;;14.85;84.25;101455.41;4938685;29;20060;-68
2021/12/30 07:59:39;;;;;;;29.77;5.53;;;;;;;14.96;84.65;101458.69;4937462;29;20058;-71
2021/12/30 08:02:07;;;;;;;26.08;4.20;;;;;;;15.11;83.64;101466.53;4935811;29;20051;-69
2021/12/30 08:04:35;;;;;;;22.90;5.00;;;;;;;15.33;83.31;101469.13;4936515;29;20056;-68
2021/12/30 08:07:02;;;;;;;25.65;4.68;;;;;;;15.15;82.79;101475.84;4938836;29;20059;-67
2021/12/30 08:09:30;;;;;;;28.33;4.63;;;;;;;15.46;82.55;101484.88;4921485;29;20043;-67
2021/12/30 08:11:59;;;;;;;22.73;4.43;;;;;;;15.32;82.69;101487.78;4938094;29;20051;-68
2021/12/30 08:14:27;;;;;;;28.60;4.82;;;;;;;15.33;82.77;101480.25;4921074;29;20150;-68
2021/12/30 08:16:55;;;;;;;21.15;3.88;;;;;;;15.15;82.51;101490.53;4938562;29;20055;-68
2021/12/30 08:19:22;;;;;;;22.48;4.10;;;;;;;15.12;83.31;101496.72;4938472;29;20059;-67
2021/12/30 08:21:50;;;;;;;24.73;4.20;;;;;;;15.15;83.22;101503.59;4938052;29;20044;-68
2021/12/30 08:24:17;;;;;;;26.00;5.57;;;;;;;15.14;83.02;101493.63;4938180;29;20125;-64
2021/12/30 08:27:05;;;;;;;22.45;4.45;;;;;;;15.07;82.96;101499.66;4938093;29;20042;-67
2021/12/30 08:29:33;;;;;;;24.13;4.55;;;;;;;14.97;83.12;101507.47;4938391;29;20048;-66
2021/12/30 08:32:00;;;;;;;22.15;3.55;;;;;;;14.95;83.56;101509.75;4936694;29;20512;-66
2021/12/30 08:34:27;;;;;;;23.73;4.60;;;;;;;15.00;83.28;101510.44;4936289;29;20443;-64
2021/12/30 08:36:54;;;;;;;32.53;5.50;;;;;;;15.13;83.03;101519.75;4937125;29;20051;-68
2021/12/30 08:39:22;;;;;;;27.60;4.95;;;;;;;15.14;83.10;101524.97;4934424;29;20055;-67
2021/12/30 08:41:49;;;;;;;25.52;4.88;;;;;;;15.32;82.32;101523.03;4938228;29;20511;-67
2021/12/30 08:44:17;;;;;;;31.90;5.45;;;;;;;15.35;82.10;101525.16;4938259;29;20063;-66
2021/12/30 08:46:44;;;;;;;24.73;3.95;;;;;;;15.43;81.61;101532.72;4937522;29;20059;-67
2021/12/30 08:49:12;;;;;;;26.88;4.55;;;;;;;15.60;80.40;101539.06;4938102;29;20503;-68
2021/12/30 08:51:39;;;;;;;22.65;4.55;;;;;;;15.48;80.01;101538.91;4936019;29;20370;-67
2021/12/30 08:54:07;;;;;;;29.67;5.18;;;;;;;15.59;79.96;101534.66;4937481;29;20380;-67
2021/12/30 08:56:34;;;;;;;21.17;4.38;;;;;;;15.72;79.74;101535.66;4918923;29;20052;-68
2021/12/30 08:59:02;;;;;;;23.75;4.43;;;;;;;15.27;80.49;101537.09;4937108;29;20052;-69
2021/12/30 09:01:29;;;;;;;22.38;4.03;;;;;;;15.31;80.93;101525.00;4937269;29;20040;-69
2021/12/30 09:03:56;;;;;;;29.23;4.75;;;;;;;15.55;80.32;101530.91;4937202;29;20056;-69
2021/12/30 09:06:24;;;;;;;30.20;5.90;;;;;;;15.72;79.46;101530.91;4935836;29;20039;-69
2021/12/30 09:08:52;;;;;;;30.25;4.72;;;;;;;15.47;79.58;101531.72;4936729;29;20054;-69
2021/12/30 09:11:19;;;;;;;19.77;4.40;;;;;;;15.49;79.95;101534.19;4937204;29;20044;-69
2021/12/30 09:13:47;;;;;;;25.35;4.63;;;;;;;15.45;79.96;101534.00;4937867;29;20052;-69
2021/12/30 09:16:14;;;;;;;26.27;4.90;;;;;;;15.37;80.48;101545.09;4937025;29;20047;-69
2021/12/30 09:18:42;;;;;;;32.35;5.03;;;;;;;15.22;81.44;101548.34;4937546;29;20055;-69
2021/12/30 09:21:10;;;;;;;24.75;4.22;;;;;;;15.53;80.66;101547.06;4937596;29;20380;-68
2021/12/30 09:23:37;;;;;;;26.25;4.53;;;;;;;15.48;80.40;101544.47;4935351;29;20052;-69
2021/12/30 09:26:04;;;;;;;31.00;4.40;;;;;;;15.53;80.30;101546.28;4937514;29;20566;-67
2021/12/30 09:28:31;;;;;;;21.08;4.53;;;;;;;15.54;80.30;101553.44;4936357;29;20055;-68
2021/12/30 09:30:59;;;;;;;22.55;4.30;;;;;;;15.92;79.09;101545.28;4936569;29;20052;-68
2021/12/30 09:33:26;;;;;;;28.67;4.90;;;;;;;15.89;78.74;101545.91;4935929;29;20511;-69
2021/12/30 09:35:54;;;;;;;17.52;4.05;;;;;;;15.76;78.83;101556.06;4937338;29;20492;-70
2021/12/30 09:38:21;;;;;;;27.40;4.53;;;;;;;15.65;78.82;101563.94;4935020;29;20523;-68
2021/12/30 09:40:48;;;;;;;28.77;4.82;;;;;;;15.37;80.58;101568.13;4933526;29;20063;-66
2021/12/30 09:43:16;;;;;;;26.73;5.03;;;;;;;15.20;81.78;101564.50;4930958;29;20407;-67
2021/12/30 09:45:43;;;;;;;26.30;4.10;;;;;;;15.39;81.38;101567.78;4937175;29;20054;-66
2021/12/30 09:48:12;;;;;;;21.63;4.22;;;;;;;15.53;81.04;101563.72;4937513;29;20399;-67
2021/12/30 09:50:43;;;;;;;26.98;4.32;;;;;;;15.35;80.88;101559.28;4937066;29;20142;-66
2021/12/30 09:53:11;;;;;;;33.15;4.78;;;;;;;15.23;81.77;101561.91;4938041;29;20055;-66
2021/12/30 09:55:39;;;;;;;23.25;3.95;;;;;;;15.22;81.99;101571.34;4937396;29;20056;-65
2021/12/30 09:58:07;;;;;;;28.55;4.97;;;;;;;15.56;81.07;101563.09;4937220;29;20396;-65
2021/12/30 10:00:35;;;;;;;23.77;4.28;;;;;;;15.51;81.29;101573.56;4923698;29;20059;-67
2021/12/30 10:03:03;;;;;;;25.67;4.95;;;;;;;15.28;82.22;101574.78;4929937;29;20056;-67
2021/12/30 10:05:36;;;;;;;26.73;4.82;;;;;;;15.27;82.11;101581.50;4922046;29;20137;-67
2021/12/30 10:08:13;;;;;;;24.10;3.90;;;;;;;15.32;81.82;101584.94;4921942;29;20052;-66
2021/12/30 10:10:43;;;;;;;26.30;4.55;;;;;;;15.49;81.37;101584.97;4921604;29;20044;-66
2021/12/30 10:13:32;;;;;;;24.38;4.70;;;;;;;15.70;80.57;101585.97;4932612;29;20044;-65
2021/12/30 10:16:11;;;;;;;21.77;4.05;;;;;;;15.47;80.57;101581.72;4940050;29;20048;-66
2021/12/30 10:18:45;;;;;;;28.40;5.03;;;;;;;15.25;81.67;101587.38;4938359;29;20415;-66
2021/12/30 10:21:27;;;;;;;29.63;4.57;;;;;;;15.41;81.67;101584.97;4938211;29;20062;-66
2021/12/30 10:23:56;;;;;;;30.23;4.88;;;;;;;15.32;81.80;101578.56;4939029;29;20052;-66
2021/12/30 10:26:24;;;;;;;25.10;4.03;;;;;;;15.38;81.57;101572.50;4949983;29;20058;-67
2021/12/30 10:28:58;;;;;;;22.52;5.07;;;;;;;15.58;80.64;101579.44;4955795;29;20298;-66
2021/12/30 10:31:31;;;;;;;41.60;6.13;;;;;;;15.36;81.44;101576.78;4945407;29;20051;-67
2021/12/30 10:34:01;;;;;;;33.92;5.10;;;;;;;15.46;81.65;101576.50;4959747;28;20055;-66
2021/12/30 10:36:31;;;;;;;35.17;7.40;;;;;;;15.29;82.00;101580.00;4958067;29;20518;-65
2021/12/30 10:39:20;;;;;;;21.98;4.07;;;;;;;15.50;81.55;101591.34;4940387;29;20060;-66
2021/12/30 10:41:51;;;;;;;21.67;3.88;;;;;;;15.77;80.63;101586.31;4940431;29;20102;-66
2021/12/30 10:44:18;;;;;;;24.23;4.55;;;;;;;15.46;81.43;101588.38;4940200;29;20158;-66
2021/12/30 10:46:47;;;;;;;23.92;4.50;;;;;;;15.32;81.78;101584.09;4936022;29;20044;-65
2021/12/30 10:49:24;;;;;;;25.55;4.10;;;;;;;15.39;82.38;101571.38;4939234;29;20411;-67
2021/12/30 10:51:55;;;;;;;22.80;3.95;;;;;;;15.48;82.36;101571.44;4929354;29;20499;-66
2021/12/30 10:54:31;;;;;;;27.55;4.22;;;;;;;15.37;82.57;101567.28;4937855;29;20044;-66
2021/12/30 10:57:02;;;;;;;23.58;3.75;;;;;;;15.63;81.92;101557.88;4939632;29;20063;-66
2021/12/30 10:59:37;;;;;;;22.20;3.65;;;;;;;15.67;81.41;101555.25;4939801;29;20052;-66
2021/12/30 11:02:12;;;;;;;28.67;4.22;;;;;;;15.92;80.16;101561.94;4937684;29;20063;-66
2021/12/30 11:04:45;;;;;;;23.25;3.80;;;;;;;15.83;80.67;101555.59;4937645;29;20059;-66
2021/12/30 11:07:15;;;;;;;19.52;3.75;;;;;;;15.84;80.42;101554.41;4938281;29;20645;-65
2021/12/30 11:09:46;;;;;;;20.38;4.00;;;;;;;15.88;79.78;101560.97;4937116;29;20058;-67
2021/12/30 11:12:15;;;;;;;19.90;3.95;;;;;;;16.03;79.38;101560.44;4936928;29;20131;-66
2021/12/30 11:14:42;;;;;;;23.85;5.03;;;;;;;16.14;79.30;101562.56;4939194;29;20495;-65
2021/12/30 11:17:18;;;;;;;44.60;20.33;;;;;;;16.23;78.18;101557.78;4938430;29;20056;-66
2021/12/30 11:19:50;;;;;;;49.83;20.55;;;;;;;15.92;79.54;101570.28;4939589;29;20055;-65
2021/12/30 11:22:21;;;;;;;30.42;9.07;;;;;;;15.91;79.57;101569.47;4937922;29;20059;-66
2021/12/30 11:24:50;;;;;;;24.63;9.68;;;;;;;16.11;78.86;101565.19;4939571;29;20129;-67
2021/12/30 11:27:19;;;;;;;18.83;4.55;;;;;;;15.88;78.83;101570.13;4939568;29;20054;-66
2021/12/30 11:29:49;;;;;;;14.38;3.97;;;;;;;16.14;78.18;101573.69;4939373;29;20063;-67